createdAt,value
2022-09-17T00:02:33.563Z,1.45
2022-09-17T00:05:37.319Z,1.63
2022-09-17T00:08:40.821Z,1.67
2022-09-17T00:11:43.813Z,2.42
2022-09-17T00:14:46.531Z,2.15
2022-09-17T00:17:54.459Z,1.80
2022-09-17T00:20:56.847Z,2.00
2022-09-17T00:24:00.129Z,2.10
2022-09-17T00:27:02.656Z,2.03
2022-09-17T00:30:05.697Z,2.22
2022-09-17T00:33:10.065Z,2.55
2022-09-17T00:36:12.553Z,1.63
2022-09-17T00:39:17.489Z,2.08
2022-09-17T00:42:20.597Z,2.88
2022-09-17T00:45:24.033Z,1.77
2022-09-17T00:48:28.984Z,2.05
2022-09-17T00:51:35.349Z,2.40
2022-09-17T00:54:39.651Z,2.38
2022-09-17T00:57:42.428Z,2.38
2022-09-17T01:00:47.097Z,1.92
2022-09-17T01:03:51.229Z,1.90
2022-09-17T01:06:58.600Z,2.33
2022-09-17T01:10:08.749Z,2.58
2022-09-17T01:13:17.786Z,1.90
2022-09-17T01:16:21.412Z,2.80
2022-09-17T01:19:39.059Z,2.05
2022-09-17T01:22:52.017Z,2.55
2022-09-17T01:26:01.517Z,2.13
2022-09-17T01:29:08.915Z,1.80
2022-09-17T01:32:14.162Z,2.10
2022-09-17T01:35:19.822Z,2.22
2022-09-17T01:38:26.621Z,2.20
2022-09-17T01:41:33.579Z,2.60
2022-09-17T01:44:38.519Z,2.47
2022-09-17T01:47:45.629Z,1.55
2022-09-17T01:50:51.803Z,1.60
2022-09-17T01:53:57.866Z,2.03
2022-09-17T01:57:02.981Z,2.50
2022-09-17T02:00:07.135Z,2.25
2022-09-17T02:03:18.623Z,1.83
2022-09-17T02:06:23.606Z,2.30
2022-09-17T02:09:29.006Z,2.60
2022-09-17T02:12:34.627Z,2.22
2022-09-17T02:15:38.903Z,2.03
2022-09-17T02:18:45.280Z,1.88
2022-09-17T02:21:49.410Z,1.90
2022-09-17T02:24:56.770Z,1.88
2022-09-17T02:28:03.416Z,1.98
2022-09-17T02:31:06.119Z,2.10
2022-09-17T02:34:10.804Z,2.15
2022-09-17T02:37:13.352Z,1.42
2022-09-17T02:40:17.469Z,1.90
2022-09-17T02:43:23.368Z,1.52
2022-09-17T02:46:35.229Z,1.38
2022-09-17T02:49:50.394Z,1.70
2022-09-17T02:52:58.128Z,1.52
2022-09-17T02:56:03.534Z,1.10
2022-09-17T02:59:11.107Z,1.77
2022-09-17T03:02:17.412Z,1.50
2022-09-17T03:05:22.255Z,1.52
2022-09-17T03:08:29.679Z,2.28
2022-09-17T03:11:32.279Z,1.92
2022-09-17T03:14:34.749Z,1.65
2022-09-17T03:17:37.199Z,2.40
2022-09-17T03:20:41.028Z,1.88
2022-09-17T03:23:43.494Z,1.38
2022-09-17T03:26:49.159Z,0.93
2022-09-17T03:29:51.621Z,1.63
2022-09-17T03:32:57.078Z,1.52
2022-09-17T03:36:01.435Z,1.52
2022-09-17T03:39:04.063Z,1.63
2022-09-17T03:42:07.068Z,1.50
2022-09-17T03:45:10.540Z,1.40
2022-09-17T03:48:13.168Z,1.60
2022-09-17T03:51:16.941Z,1.65
2022-09-17T03:54:19.527Z,1.40
2022-09-17T03:57:22.662Z,1.80
2022-09-17T04:00:25.271Z,1.20
2022-09-17T04:03:29.044Z,1.58
2022-09-17T04:06:32.887Z,1.55
2022-09-17T04:09:35.568Z,1.48
2022-09-17T04:12:38.174Z,1.67
2022-09-17T04:15:40.827Z,1.58
2022-09-17T04:18:43.383Z,1.83
2022-09-17T04:21:47.195Z,1.75
2022-09-17T04:24:49.767Z,1.48
2022-09-17T04:27:52.250Z,1.40
2022-09-17T04:30:54.764Z,1.55
2022-09-17T04:33:57.305Z,1.65
2022-09-17T04:37:01.372Z,1.88
2022-09-17T04:40:08.138Z,1.08
2022-09-17T04:43:12.805Z,1.58
2022-09-17T04:46:18.029Z,1.58
2022-09-17T04:49:20.847Z,1.83
2022-09-17T04:52:30.255Z,1.50
2022-09-17T04:55:33.530Z,2.25
2022-09-17T04:58:36.530Z,1.08
2022-09-17T05:01:39.094Z,1.75
2022-09-17T05:04:43.544Z,1.52
2022-09-17T05:07:48.626Z,1.42
2022-09-17T05:10:51.274Z,1.20
2022-09-17T05:13:53.867Z,1.15
2022-09-17T05:16:57.247Z,1.23
2022-09-17T05:20:03.425Z,1.77
2022-09-17T05:23:16.813Z,1.15
2022-09-17T05:26:19.362Z,1.70
2022-09-17T05:29:23.538Z,1.20
2022-09-17T05:32:26.078Z,1.92
2022-09-17T05:35:32.564Z,1.40
2022-09-17T05:38:41.104Z,1.27
2022-09-17T05:41:44.666Z,1.60
2022-09-17T05:44:47.803Z,1.08
2022-09-17T05:47:56.203Z,1.98
2022-09-17T05:50:58.682Z,1.13
2022-09-17T05:54:07.700Z,1.10
2022-09-17T05:57:10.272Z,1.45
2022-09-17T06:00:14.229Z,1.15
2022-09-17T06:03:19.198Z,1.35
2022-09-17T06:06:21.782Z,1.20
2022-09-17T06:09:25.677Z,1.65
2022-09-17T06:12:29.163Z,1.13
2022-09-17T06:15:31.765Z,1.38
2022-09-17T06:18:38.703Z,1.55
2022-09-17T06:21:41.161Z,1.80
2022-09-17T06:24:45.061Z,1.33
2022-09-17T06:27:47.615Z,1.38
2022-09-17T06:30:52.578Z,1.73
2022-09-17T06:33:58.416Z,1.30
2022-09-17T06:37:01.421Z,1.40
2022-09-17T06:40:07.018Z,1.30
2022-09-17T06:43:09.726Z,1.30
2022-09-17T06:46:12.478Z,1.35
2022-09-17T06:49:17.762Z,1.58
2022-09-17T06:52:20.361Z,1.30
2022-09-17T06:55:28.171Z,1.30
2022-09-17T06:58:31.157Z,1.17
2022-09-17T07:01:34.748Z,1.27
2022-09-17T07:04:37.777Z,1.42
2022-09-17T07:07:41.146Z,1.50
2022-09-17T07:10:49.287Z,1.58
2022-09-17T07:13:52.810Z,1.77
2022-09-17T07:16:55.924Z,1.40
2022-09-17T07:19:59.528Z,1.30
2022-09-17T07:23:02.592Z,1.00
2022-09-17T07:26:07.517Z,1.30
2022-09-17T07:29:12.245Z,1.38
2022-09-17T07:32:19.777Z,1.17
2022-09-17T07:35:23.099Z,1.40
2022-09-17T07:38:26.271Z,1.40
2022-09-17T07:41:34.327Z,0.93
2022-09-17T07:44:37.683Z,0.88
2022-09-17T07:47:41.258Z,1.40
2022-09-17T07:50:43.874Z,1.02
2022-09-17T07:53:50.349Z,0.85
2022-09-17T07:56:54.670Z,1.23
2022-09-17T08:00:01.988Z,1.00
2022-09-17T08:03:17.774Z,0.90
2022-09-17T08:06:21.232Z,0.77
2022-09-17T08:09:24.266Z,0.65
2022-09-17T08:12:29.866Z,0.63
2022-09-17T08:15:32.423Z,0.90
2022-09-17T08:18:35.813Z,0.88
2022-09-17T08:21:39.321Z,0.80
2022-09-17T08:24:44.960Z,0.70
2022-09-17T08:27:49.080Z,0.70
2022-09-17T08:30:52.106Z,0.88
2022-09-17T08:33:54.801Z,0.75
2022-09-17T08:36:57.716Z,1.25
2022-09-17T08:40:02.182Z,1.55
2022-09-17T08:43:07.091Z,0.70
2022-09-17T08:46:10.812Z,0.90
2022-09-17T08:49:17.371Z,1.25
2022-09-17T08:52:34.807Z,1.10
2022-09-17T08:55:38.716Z,1.10
2022-09-17T08:58:59.655Z,0.98
2022-09-17T09:02:14.102Z,0.80
2022-09-17T09:05:17.875Z,1.42
2022-09-17T09:08:23.530Z,0.70
2022-09-17T09:11:27.372Z,0.75
2022-09-17T09:14:32.942Z,1.17
2022-09-17T09:17:39.092Z,0.77
2022-09-17T09:20:47.031Z,0.98
2022-09-17T09:23:53.218Z,0.95
2022-09-17T09:26:59.513Z,0.82
2022-09-17T09:30:04.088Z,0.65
2022-09-17T09:33:13.436Z,0.80
2022-09-17T09:36:21.383Z,0.93
2022-09-17T09:39:25.890Z,1.17
2022-09-17T09:42:30.035Z,0.70
2022-09-17T09:45:38.969Z,0.90
2022-09-17T09:48:47.795Z,0.77
2022-09-17T09:51:53.692Z,0.60
2022-09-17T09:55:03.659Z,0.77
2022-09-17T09:58:09.861Z,0.65
2022-09-17T10:01:13.897Z,0.65
2022-09-17T10:04:20.123Z,0.43
2022-09-17T10:07:22.675Z,0.70
2022-09-17T10:10:25.197Z,0.52
2022-09-17T10:13:28.411Z,0.70
2022-09-17T10:16:39.770Z,0.57
2022-09-17T10:19:44.166Z,0.60
2022-09-17T10:22:47.208Z,0.73
2022-09-17T10:25:50.097Z,1.05
2022-09-17T10:28:54.334Z,0.45
2022-09-17T10:31:57.693Z,0.55
2022-09-17T10:35:04.980Z,0.55
2022-09-17T10:38:27.304Z,0.40
2022-09-17T10:41:29.852Z,0.40
2022-09-17T10:44:34.322Z,0.40
2022-09-17T10:47:37.994Z,0.30
2022-09-17T10:50:41.787Z,0.30
2022-09-17T10:53:58.106Z,0.75
2022-09-17T10:57:01.557Z,0.40
2022-09-17T11:00:09.366Z,0.60
2022-09-17T11:03:29.987Z,0.73
2022-09-17T11:06:46.550Z,0.40
2022-09-17T11:09:53.059Z,0.65
2022-09-17T11:13:09.251Z,0.40
2022-09-17T11:16:20.412Z,0.70
2022-09-17T11:19:28.017Z,0.50
2022-09-17T11:22:36.851Z,0.50
2022-09-17T11:25:46.269Z,0.47
2022-09-17T11:28:52.902Z,1.00
2022-09-17T11:32:00.810Z,0.50
2022-09-17T11:35:04.468Z,0.47
2022-09-17T11:38:11.667Z,0.80
2022-09-17T11:41:16.550Z,0.50
2022-09-17T11:44:25.552Z,0.65
2022-09-17T11:47:31.502Z,0.60
2022-09-17T11:50:37.582Z,0.45
2022-09-17T11:53:44.049Z,0.40
2022-09-17T11:56:48.747Z,0.50
2022-09-17T11:59:52.938Z,0.60
2022-09-17T12:02:58.590Z,0.50
2022-09-17T12:06:03.563Z,0.47
2022-09-17T12:09:11.524Z,0.82
2022-09-17T12:12:45.054Z,0.77
2022-09-17T12:15:44.594Z,0.50
2022-09-17T12:18:52.445Z,0.65
2022-09-17T12:21:57.549Z,0.75
2022-09-17T12:25:02.234Z,0.60
2022-09-17T12:28:09.096Z,0.63
2022-09-17T12:31:15.419Z,0.90
2022-09-17T12:34:23.726Z,0.88
2022-09-17T12:37:28.722Z,0.60
2022-09-17T12:40:35.149Z,0.40
2022-09-17T12:43:48.094Z,0.40
2022-09-17T12:46:56.226Z,0.57
2022-09-17T12:50:04.718Z,0.70
2022-09-17T12:53:14.006Z,0.80
2022-09-17T12:56:25.678Z,0.60
2022-09-17T12:59:30.943Z,1.25
2022-09-17T13:02:37.119Z,1.05
2022-09-17T13:05:57.547Z,1.00
2022-09-17T13:09:27.237Z,0.75
2022-09-17T13:12:33.352Z,0.63
2022-09-17T13:15:42.516Z,0.55
2022-09-17T13:19:05.531Z,0.85
2022-09-17T13:22:17.202Z,0.52
2022-09-17T13:25:20.704Z,0.82
2022-09-17T13:28:36.783Z,0.68
2022-09-17T13:31:50.779Z,1.40
2022-09-17T13:34:53.302Z,0.77
2022-09-17T13:37:57.258Z,0.82
2022-09-17T13:41:14.586Z,0.75
2022-09-17T13:44:23.595Z,1.30
2022-09-17T13:48:03.916Z,0.90
2022-09-17T13:51:21.411Z,0.90
2022-09-17T13:54:25.604Z,1.00
2022-09-17T13:57:28.388Z,1.10
2022-09-17T14:00:52.348Z,1.27
2022-09-17T14:03:57.019Z,0.90
2022-09-17T14:06:59.603Z,0.70
2022-09-17T14:10:02.312Z,0.70
2022-09-17T14:13:24.083Z,1.98
2022-09-17T14:16:37.095Z,0.98
2022-09-17T14:19:49.036Z,1.85
2022-09-17T14:22:57.564Z,1.58
2022-09-17T14:26:01.318Z,2.08
2022-09-17T14:29:10.084Z,0.95
2022-09-17T14:32:18.164Z,1.42
2022-09-17T14:35:24.592Z,1.88
2022-09-17T14:38:32.638Z,0.80
2022-09-17T14:41:45.767Z,0.80
2022-09-17T14:44:54.148Z,0.93
2022-09-17T14:48:15.363Z,0.40
2022-09-17T14:51:26.669Z,0.93
2022-09-17T14:54:35.146Z,0.93
2022-09-17T14:57:38.875Z,0.60
2022-09-17T15:00:51.729Z,0.50
2022-09-17T15:04:09.866Z,0.47
2022-09-17T15:07:14.736Z,1.08
2022-09-17T15:10:18.856Z,1.38
2022-09-17T15:13:23.559Z,0.77
2022-09-17T15:16:27.150Z,0.57
2022-09-17T15:19:33.388Z,0.50
2022-09-17T15:22:40.266Z,0.50
2022-09-17T15:25:43.819Z,0.80
2022-09-17T15:28:47.630Z,0.68
2022-09-17T15:31:50.958Z,0.50
2022-09-17T15:35:13.188Z,0.70
2022-09-17T15:38:30.754Z,0.57
2022-09-17T15:41:42.407Z,0.73
2022-09-17T15:44:45.729Z,0.30
2022-09-17T15:48:00.335Z,0.40
2022-09-17T15:51:04.989Z,0.40
2022-09-17T15:54:29.731Z,0.93
2022-09-17T15:57:36.624Z,0.45
2022-09-17T16:00:39.238Z,0.35
2022-09-17T16:03:56.683Z,0.50
2022-09-17T16:07:04.239Z,0.30
2022-09-17T16:10:08.751Z,0.38
2022-09-17T16:13:12.275Z,0.80
2022-09-17T16:16:16.237Z,0.43
2022-09-17T16:19:18.812Z,0.50
2022-09-17T16:22:21.419Z,0.50
2022-09-17T16:25:26.063Z,0.70
2022-09-17T16:28:32.320Z,0.70
2022-09-17T16:31:35.741Z,0.70
2022-09-17T16:34:38.745Z,0.70
2022-09-17T16:37:41.333Z,0.40
2022-09-17T16:40:47.060Z,0.50
2022-09-17T16:43:49.628Z,0.60
2022-09-17T16:46:52.406Z,0.30
2022-09-17T16:49:54.941Z,0.45
2022-09-17T16:53:01.513Z,0.70
2022-09-17T16:56:08.865Z,0.40
2022-09-17T16:59:12.322Z,0.90
2022-09-17T17:02:18.052Z,0.47
2022-09-17T17:05:20.808Z,0.68
2022-09-17T17:08:23.389Z,0.50
2022-09-17T17:11:27.880Z,0.63
2022-09-17T17:14:30.836Z,0.45
2022-09-17T17:17:35.699Z,0.75
2022-09-17T17:20:38.318Z,0.52
2022-09-17T17:23:43.386Z,0.40
2022-09-17T17:26:47.606Z,0.40
2022-09-17T17:29:50.800Z,0.32
2022-09-17T17:32:53.646Z,0.40
2022-09-17T17:36:03.976Z,0.40
2022-09-17T17:39:10.423Z,0.32
2022-09-17T17:42:15.225Z,0.20
2022-09-17T17:45:17.750Z,0.40
2022-09-17T17:48:20.262Z,0.40
2022-09-17T17:51:23.802Z,0.20
2022-09-17T17:54:28.948Z,0.30
2022-09-17T17:57:33.754Z,0.20
2022-09-17T18:00:36.336Z,0.20
2022-09-17T18:03:39.851Z,0.20
2022-09-17T18:06:47.959Z,0.25
2022-09-17T18:09:51.320Z,0.40
2022-09-17T18:12:55.864Z,0.30
2022-09-17T18:16:00.358Z,0.25
2022-09-17T18:19:03.051Z,0.40
2022-09-17T18:22:05.681Z,0.25
2022-09-17T18:25:16.399Z,0.20
2022-09-17T18:28:23.142Z,0.20
2022-09-17T18:31:26.450Z,0.20
2022-09-17T18:34:29.099Z,0.30
2022-09-17T18:37:31.588Z,0.20
2022-09-17T18:40:34.292Z,0.10
2022-09-17T18:43:38.208Z,0.20
2022-09-17T18:46:42.712Z,0.30
2022-09-17T18:49:45.410Z,0.20
2022-09-17T18:52:48.276Z,0.20
2022-09-17T18:55:54.559Z,0.20
2022-09-17T18:59:00.810Z,0.30
2022-09-17T19:02:07.804Z,0.47
2022-09-17T19:05:10.678Z,0.50
2022-09-17T19:08:14.485Z,0.50
2022-09-17T19:11:16.946Z,0.20
2022-09-17T19:14:20.825Z,0.70
2022-09-17T19:17:23.438Z,0.20
2022-09-17T19:20:26.343Z,0.40
2022-09-17T19:23:29.476Z,0.38
2022-09-17T19:26:31.991Z,0.65
2022-09-17T19:29:36.029Z,0.43
2022-09-17T19:32:41.283Z,0.47
2022-09-17T19:35:45.760Z,0.40
2022-09-17T19:38:48.698Z,0.30
2022-09-17T19:41:51.197Z,0.20
2022-09-17T19:44:55.133Z,0.40
2022-09-17T19:48:01.563Z,0.50
2022-09-17T19:51:04.582Z,0.43
2022-09-17T19:54:09.355Z,0.55
2022-09-17T19:57:11.867Z,0.50
2022-09-17T20:00:16.677Z,0.70
2022-09-17T20:03:19.093Z,0.60
2022-09-17T20:06:23.253Z,0.90
2022-09-17T20:09:25.806Z,0.60
2022-09-17T20:12:28.312Z,0.80
2022-09-17T20:15:34.302Z,0.77
2022-09-17T20:18:37.109Z,0.57
2022-09-17T20:21:39.833Z,1.30
2022-09-17T20:24:46.577Z,0.77
2022-09-17T20:27:52.107Z,1.25
2022-09-17T20:31:02.025Z,1.00
2022-09-17T22:55:25.792Z,0.75
2022-09-17T22:58:28.615Z,0.90
2022-09-17T23:01:33.015Z,0.80
2022-09-17T23:04:35.835Z,0.90
2022-09-17T23:07:38.853Z,0.85
2022-09-17T23:10:43.308Z,1.20
2022-09-17T23:13:46.601Z,1.05
2022-09-17T23:16:49.713Z,0.93
2022-09-17T23:19:52.279Z,0.98
2022-09-17T23:22:54.824Z,1.23
2022-09-17T23:26:02.941Z,0.63
2022-09-17T23:29:05.968Z,0.65
2022-09-17T23:32:08.706Z,1.10
2022-09-17T23:35:12.457Z,1.00
2022-09-17T23:38:15.258Z,2.15
2022-09-17T23:41:20.158Z,0.95
2022-09-17T23:44:22.770Z,1.10
2022-09-17T23:47:25.241Z,1.23
2022-09-17T23:50:27.802Z,0.85
2022-09-17T23:53:30.993Z,1.15
2022-09-17T23:56:35.346Z,1.05
2022-09-17T23:59:37.902Z,0.75
